sensor_id;sensor_type;location;lat;lon;timestamp;pressure;altitude;pressure_sealevel;temperature;humidity
72636;BME280;60679;48.888;15.544;2023-11-21T00:00:27;95632.19;;;4.58;74.31
72636;BME280;60679;48.888;15.544;2023-11-21T00:02:52;95638.59;;;4.57;74.57
72636;BME280;60679;48.888;15.544;2023-11-21T00:05:17;95642.72;;;4.59;74.51
72636;BME280;60679;48.888;15.544;2023-11-21T00:07:43;95647.66;;;4.62;74.79
72636;BME280;60679;48.888;15.544;2023-11-21T00:10:09;95655.28;;;4.65;74.68
72636;BME280;60679;48.888;15.544;2023-11-21T00:12:36;95647.03;;;4.67;74.51
72636;BME280;60679;48.888;15.544;2023-11-21T00:15:01;95644.97;;;4.69;74.36
72636;BME280;60679;48.888;15.544;2023-11-21T00:17:34;95637.38;;;4.73;74.42
72636;BME280;60679;48.888;15.544;2023-11-21T00:19:59;95634.69;;;4.66;74.52
72636;BME280;60679;48.888;15.544;2023-11-21T00:22:25;95639.41;;;4.64;74.74
72636;BME280;60679;48.888;15.544;2023-11-21T00:24:50;95628.72;;;4.64;74.62
72636;BME280;60679;48.888;15.544;2023-11-21T00:27:16;95645.16;;;4.61;74.62
72636;BME280;60679;48.888;15.544;2023-11-21T00:29:41;95637.94;;;4.55;74.58
72636;BME280;60679;48.888;15.544;2023-11-21T00:32:07;95641.44;;;4.49;74.59
72636;BME280;60679;48.888;15.544;2023-11-21T00:34:32;95645.31;;;4.40;74.57
72636;BME280;60679;48.888;15.544;2023-11-21T00:36:58;95638.94;;;4.34;74.78
72636;BME280;60679;48.888;15.544;2023-11-21T00:39:24;95647.53;;;4.30;74.52
72636;BME280;60679;48.888;15.544;2023-11-21T00:41:49;95641.75;;;4.26;74.85
72636;BME280;60679;48.888;15.544;2023-11-21T00:44:14;95652.25;;;4.28;74.77
72636;BME280;60679;48.888;15.544;2023-11-21T00:46:41;95655.38;;;4.38;74.92
72636;BME280;60679;48.888;15.544;2023-11-21T00:49:06;95655.41;;;4.44;74.81
72636;BME280;60679;48.888;15.544;2023-11-21T00:51:33;95650.28;;;4.49;74.69
72636;BME280;60679;48.888;15.544;2023-11-21T00:53:58;95654.16;;;4.40;74.70
72636;BME280;60679;48.888;15.544;2023-11-21T00:56:24;95663.78;;;4.28;74.65
72636;BME280;60679;48.888;15.544;2023-11-21T00:58:49;95661.06;;;4.22;74.81
72636;BME280;60679;48.888;15.544;2023-11-21T01:01:21;95657.34;;;4.16;74.86
72636;BME280;60679;48.888;15.544;2023-11-21T01:03:48;95655.47;;;4.10;74.97
72636;BME280;60679;48.888;15.544;2023-11-21T01:06:14;95655.47;;;4.10;75.04
72636;BME280;60679;48.888;15.544;2023-11-21T01:08:40;95649.72;;;4.13;74.90
72636;BME280;60679;48.888;15.544;2023-11-21T01:11:05;95644.88;;;4.23;74.92
72636;BME280;60679;48.888;15.544;2023-11-21T01:13:42;95647.53;;;4.23;74.79
72636;BME280;60679;48.888;15.544;2023-11-21T01:16:08;95643.00;;;4.24;74.76
72636;BME280;60679;48.888;15.544;2023-11-21T01:18:35;95642.81;;;4.25;74.97
72636;BME280;60679;48.888;15.544;2023-11-21T01:21:00;95642.38;;;4.22;74.77
72636;BME280;60679;48.888;15.544;2023-11-21T01:23:26;95637.38;;;4.12;74.72
72636;BME280;60679;48.888;15.544;2023-11-21T01:25:52;95640.06;;;4.12;75.08
72636;BME280;60679;48.888;15.544;2023-11-21T01:28:18;95630.03;;;4.21;74.90
72636;BME280;60679;48.888;15.544;2023-11-21T01:30:43;95621.22;;;4.27;74.86
72636;BME280;60679;48.888;15.544;2023-11-21T01:33:09;95622.88;;;4.28;74.84
72636;BME280;60679;48.888;15.544;2023-11-21T01:35:35;95625.72;;;4.26;74.93
72636;BME280;60679;48.888;15.544;2023-11-21T01:38:01;95624.72;;;4.27;74.97
72636;BME280;60679;48.888;15.544;2023-11-21T01:40:26;95626.56;;;4.27;75.06
72636;BME280;60679;48.888;15.544;2023-11-21T01:42:53;95625.50;;;4.21;74.69
72636;BME280;60679;48.888;15.544;2023-11-21T01:45:18;95620.78;;;4.17;74.77
72636;BME280;60679;48.888;15.544;2023-11-21T01:47:44;95621.56;;;4.11;74.74
72636;BME280;60679;48.888;15.544;2023-11-21T01:50:14;95626.47;;;4.00;74.81
72636;BME280;60679;48.888;15.544;2023-11-21T01:52:44;95618.88;;;3.97;75.05
72636;BME280;60679;48.888;15.544;2023-11-21T01:55:10;95631.44;;;4.03;75.01
72636;BME280;60679;48.888;15.544;2023-11-21T01:57:36;95625.25;;;4.03;75.09
72636;BME280;60679;48.888;15.544;2023-11-21T02:00:04;95626.25;;;4.02;75.12
72636;BME280;60679;48.888;15.544;2023-11-21T02:02:45;95627.09;;;4.02;75.00
72636;BME280;60679;48.888;15.544;2023-11-21T02:05:12;95627.28;;;4.01;75.09
72636;BME280;60679;48.888;15.544;2023-11-21T02:07:41;95625.03;;;4.04;75.00
72636;BME280;60679;48.888;15.544;2023-11-21T02:10:08;95622.59;;;4.09;75.00
72636;BME280;60679;48.888;15.544;2023-11-21T02:12:34;95613.56;;;4.11;74.92
72636;BME280;60679;48.888;15.544;2023-11-21T02:15:04;95618.91;;;4.11;75.07
72636;BME280;60679;48.888;15.544;2023-11-21T02:17:35;95619.53;;;4.13;75.23
72636;BME280;60679;48.888;15.544;2023-11-21T02:20:00;95615.88;;;4.20;75.14
72636;BME280;60679;48.888;15.544;2023-11-21T02:22:31;95614.00;;;4.21;75.07
72636;BME280;60679;48.888;15.544;2023-11-21T02:24:57;95617.50;;;4.21;74.89
72636;BME280;60679;48.888;15.544;2023-11-21T02:27:23;95618.72;;;4.19;74.92
72636;BME280;60679;48.888;15.544;2023-11-21T02:29:49;95618.94;;;4.24;75.21
72636;BME280;60679;48.888;15.544;2023-11-21T02:32:14;95616.91;;;4.26;75.11
72636;BME280;60679;48.888;15.544;2023-11-21T02:34:42;95618.16;;;4.23;75.06
72636;BME280;60679;48.888;15.544;2023-11-21T02:37:08;95606.63;;;4.23;74.97
72636;BME280;60679;48.888;15.544;2023-11-21T02:39:34;95611.13;;;4.22;74.96
72636;BME280;60679;48.888;15.544;2023-11-21T02:41:59;95616.09;;;4.25;75.01
72636;BME280;60679;48.888;15.544;2023-11-21T02:44:25;95615.03;;;4.26;75.25
72636;BME280;60679;48.888;15.544;2023-11-21T02:46:51;95613.44;;;4.32;75.02
72636;BME280;60679;48.888;15.544;2023-11-21T02:49:17;95613.44;;;4.32;75.08
72636;BME280;60679;48.888;15.544;2023-11-21T02:51:42;95613.44;;;4.32;75.05
72636;BME280;60679;48.888;15.544;2023-11-21T02:54:08;95608.09;;;4.38;75.08
72636;BME280;60679;48.888;15.544;2023-11-21T02:56:34;95613.84;;;4.35;75.09
72636;BME280;60679;48.888;15.544;2023-11-21T02:59:00;95607.66;;;4.35;75.13
72636;BME280;60679;48.888;15.544;2023-11-21T03:01:25;95606.03;;;4.34;75.07
72636;BME280;60679;48.888;15.544;2023-11-21T03:03:51;95609.50;;;4.28;75.16
72636;BME280;60679;48.888;15.544;2023-11-21T03:06:20;95618.53;;;4.20;75.07
72636;BME280;60679;48.888;15.544;2023-11-21T03:08:46;95613.78;;;4.09;74.90
72636;BME280;60679;48.888;15.544;2023-11-21T03:11:12;95621.75;;;4.02;75.15
72636;BME280;60679;48.888;15.544;2023-11-21T03:13:41;95606.34;;;4.04;75.13
72636;BME280;60679;48.888;15.544;2023-11-21T03:16:10;95613.97;;;4.07;75.14
72636;BME280;60679;48.888;15.544;2023-11-21T03:18:36;95618.91;;;4.11;75.02
72636;BME280;60679;48.888;15.544;2023-11-21T03:21:02;95618.06;;;4.10;75.17
72636;BME280;60679;48.888;15.544;2023-11-21T03:23:28;95616.44;;;4.09;75.11
72636;BME280;60679;48.888;15.544;2023-11-21T03:25:53;95608.84;;;4.06;74.96
72636;BME280;60679;48.888;15.544;2023-11-21T03:28:18;95608.59;;;4.01;75.07
72636;BME280;60679;48.888;15.544;2023-11-21T03:30:44;95610.84;;;3.97;75.11
72636;BME280;60679;48.888;15.544;2023-11-21T03:33:09;95624.38;;;3.96;75.22
72636;BME280;60679;48.888;15.544;2023-11-21T03:35:34;95621.94;;;3.94;75.17
72636;BME280;60679;48.888;15.544;2023-11-21T03:38:00;95623.94;;;3.92;75.39
72636;BME280;60679;48.888;15.544;2023-11-21T03:40:25;95616.38;;;3.89;75.40
72636;BME280;60679;48.888;15.544;2023-11-21T03:42:51;95608.75;;;3.86;75.15
72636;BME280;60679;48.888;15.544;2023-11-21T03:45:16;95613.44;;;3.84;75.22
72636;BME280;60679;48.888;15.544;2023-11-21T03:47:42;95613.66;;;3.83;75.41
72636;BME280;60679;48.888;15.544;2023-11-21T03:50:07;95610.97;;;3.83;75.45
72636;BME280;60679;48.888;15.544;2023-11-21T03:52:34;95615.88;;;3.79;75.42
72636;BME280;60679;48.888;15.544;2023-11-21T03:55:00;95618.34;;;3.74;75.29
72636;BME280;60679;48.888;15.544;2023-11-21T03:57:26;95618.94;;;3.70;75.27
72636;BME280;60679;48.888;15.544;2023-11-21T03:59:53;95627.28;;;3.60;75.42
72636;BME280;60679;48.888;15.544;2023-11-21T04:02:18;95628.03;;;3.47;75.56
72636;BME280;60679;48.888;15.544;2023-11-21T04:04:43;95620.75;;;3.35;75.63
72636;BME280;60679;48.888;15.544;2023-11-21T04:07:09;95627.72;;;3.29;75.79
72636;BME280;60679;48.888;15.544;2023-11-21T04:09:34;95619.31;;;3.32;75.91
72636;BME280;60679;48.888;15.544;2023-11-21T04:12:01;95626.34;;;3.40;75.87
72636;BME280;60679;48.888;15.544;2023-11-21T04:14:27;95625.56;;;3.46;75.63
72636;BME280;60679;48.888;15.544;2023-11-21T04:16:52;95623.13;;;3.51;75.72
72636;BME280;60679;48.888;15.544;2023-11-21T04:19:18;95622.97;;;3.59;75.58
72636;BME280;60679;48.888;15.544;2023-11-21T04:21:44;95624.66;;;3.67;75.59
72636;BME280;60679;48.888;15.544;2023-11-21T04:24:10;95614.22;;;3.72;75.55
72636;BME280;60679;48.888;15.544;2023-11-21T04:26:36;95611.34;;;3.73;75.33
72636;BME280;60679;48.888;15.544;2023-11-21T04:29:01;95610.50;;;3.73;75.68
72636;BME280;60679;48.888;15.544;2023-11-21T04:31:26;95613.59;;;3.70;75.56
72636;BME280;60679;48.888;15.544;2023-11-21T04:33:52;95614.16;;;3.65;75.52
72636;BME280;60679;48.888;15.544;2023-11-21T04:36:17;95604.94;;;3.61;75.61
72636;BME280;60679;48.888;15.544;2023-11-21T04:38:43;95608.38;;;3.55;75.70
72636;BME280;60679;48.888;15.544;2023-11-21T04:41:09;95608.28;;;3.42;75.59
72636;BME280;60679;48.888;15.544;2023-11-21T04:43:34;95608.19;;;3.29;75.66
72636;BME280;60679;48.888;15.544;2023-11-21T04:46:00;95608.53;;;3.19;76.03
72636;BME280;60679;48.888;15.544;2023-11-21T04:48:27;95606.25;;;3.16;76.07
72636;BME280;60679;48.888;15.544;2023-11-21T04:50:52;95605.06;;;3.19;76.08
72636;BME280;60679;48.888;15.544;2023-11-21T04:53:17;95591.47;;;3.14;76.14
72636;BME280;60679;48.888;15.544;2023-11-21T04:55:43;95601.50;;;3.12;75.78
72636;BME280;60679;48.888;15.544;2023-11-21T04:58:09;95601.44;;;3.05;76.08
72636;BME280;60679;48.888;15.544;2023-11-21T05:00:35;95604.03;;;2.92;75.78
72636;BME280;60679;48.888;15.544;2023-11-21T05:03:02;95614.72;;;2.71;76.04
72636;BME280;60679;48.888;15.544;2023-11-21T05:05:28;95613.13;;;2.55;76.07
72636;BME280;60679;48.888;15.544;2023-11-21T05:07:54;95618.25;;;2.36;76.17
72636;BME280;60679;48.888;15.544;2023-11-21T05:10:20;95612.81;;;2.22;76.49
72636;BME280;60679;48.888;15.544;2023-11-21T05:12:45;95615.19;;;2.17;76.51
72636;BME280;60679;48.888;15.544;2023-11-21T05:15:14;95607.03;;;2.19;76.63
72636;BME280;60679;48.888;15.544;2023-11-21T05:17:40;95611.84;;;2.30;76.58
72636;BME280;60679;48.888;15.544;2023-11-21T05:20:15;95613.69;;;2.29;76.37
72636;BME280;60679;48.888;15.544;2023-11-21T05:22:45;95611.53;;;2.18;76.46
72636;BME280;60679;48.888;15.544;2023-11-21T05:25:11;95611.00;;;2.08;76.48
72636;BME280;60679;48.888;15.544;2023-11-21T05:27:37;95611.13;;;2.00;76.52
72636;BME280;60679;48.888;15.544;2023-11-21T05:30:03;95611.78;;;1.88;76.68
72636;BME280;60679;48.888;15.544;2023-11-21T05:32:32;95611.63;;;1.74;76.66
72636;BME280;60679;48.888;15.544;2023-11-21T05:34:58;95620.97;;;1.70;76.79
72636;BME280;60679;48.888;15.544;2023-11-21T05:37:23;95619.16;;;1.71;76.81
72636;BME280;60679;48.888;15.544;2023-11-21T05:39:49;95624.63;;;1.69;76.92
72636;BME280;60679;48.888;15.544;2023-11-21T05:42:15;95615.28;;;1.73;76.78
72636;BME280;60679;48.888;15.544;2023-11-21T05:44:43;95615.09;;;1.75;76.96
72636;BME280;60679;48.888;15.544;2023-11-21T05:47:09;95616.94;;;1.74;76.76
72636;BME280;60679;48.888;15.544;2023-11-21T05:49:35;95618.88;;;1.81;76.89
72636;BME280;60679;48.888;15.544;2023-11-21T05:52:00;95619.75;;;1.88;77.04
72636;BME280;60679;48.888;15.544;2023-11-21T05:54:26;95622.56;;;2.01;76.48
72636;BME280;60679;48.888;15.544;2023-11-21T05:56:51;95624.75;;;2.12;76.63
72636;BME280;60679;48.888;15.544;2023-11-21T05:59:17;95623.88;;;2.26;76.82
72636;BME280;60679;48.888;15.544;2023-11-21T06:01:42;95629.81;;;2.43;76.54
72636;BME280;60679;48.888;15.544;2023-11-21T06:04:08;95631.28;;;2.45;76.61
72636;BME280;60679;48.888;15.544;2023-11-21T06:06:35;95631.97;;;2.32;76.54
72636;BME280;60679;48.888;15.544;2023-11-21T06:09:00;95634.38;;;2.27;76.37
72636;BME280;60679;48.888;15.544;2023-11-21T06:11:26;95636.78;;;2.22;76.48
72636;BME280;60679;48.888;15.544;2023-11-21T06:13:51;95642.38;;;2.13;76.57
72636;BME280;60679;48.888;15.544;2023-11-21T06:16:18;95645.28;;;1.97;76.46
72636;BME280;60679;48.888;15.544;2023-11-21T06:18:45;95648.16;;;1.81;76.64
72636;BME280;60679;48.888;15.544;2023-11-21T06:21:11;95654.38;;;1.73;76.62
72636;BME280;60679;48.888;15.544;2023-11-21T06:23:37;95656.03;;;1.74;76.44
72636;BME280;60679;48.888;15.544;2023-11-21T06:26:02;95655.56;;;1.70;76.52
72636;BME280;60679;48.888;15.544;2023-11-21T06:28:29;95658.59;;;1.67;76.79
72636;BME280;60679;48.888;15.544;2023-11-21T06:30:55;95663.28;;;1.65;76.78
72636;BME280;60679;48.888;15.544;2023-11-21T06:33:21;95672.25;;;1.64;76.71
72636;BME280;60679;48.888;15.544;2023-11-21T06:35:47;95671.91;;;1.67;76.73
72636;BME280;60679;48.888;15.544;2023-11-21T06:38:12;95671.53;;;1.70;76.74
72636;BME280;60679;48.888;15.544;2023-11-21T06:40:37;95674.19;;;1.70;76.67
72636;BME280;60679;48.888;15.544;2023-11-21T06:43:03;95680.34;;;1.86;76.71
72636;BME280;60679;48.888;15.544;2023-11-21T06:45:30;95683.69;;;2.23;76.46
72636;BME280;60679;48.888;15.544;2023-11-21T06:47:55;95671.56;;;2.78;75.70
72636;BME280;60679;48.888;15.544;2023-11-21T06:50:21;95671.38;;;3.56;74.79
72636;BME280;60679;48.888;15.544;2023-11-21T06:52:46;95667.72;;;4.39;74.47
72636;BME280;60679;48.888;15.544;2023-11-21T06:55:11;95666.84;;;4.99;74.37
72636;BME280;60679;48.888;15.544;2023-11-21T06:57:37;95663.97;;;5.53;73.83
72636;BME280;60679;48.888;15.544;2023-11-21T07:00:03;95663.13;;;5.39;74.35
72636;BME280;60679;48.888;15.544;2023-11-21T07:02:30;95679.22;;;5.13;74.53
72636;BME280;60679;48.888;15.544;2023-11-21T07:04:55;95682.69;;;5.00;74.27
72636;BME280;60679;48.888;15.544;2023-11-21T07:07:20;95685.34;;;4.87;74.20
72636;BME280;60679;48.888;15.544;2023-11-21T07:09:46;95684.47;;;4.67;74.33
72636;BME280;60679;48.888;15.544;2023-11-21T07:12:11;95688.09;;;4.46;74.58
72636;BME280;60679;48.888;15.544;2023-11-21T07:14:37;95696.47;;;4.30;75.00
72636;BME280;60679;48.888;15.544;2023-11-21T07:17:04;95696.03;;;4.27;74.92
72636;BME280;60679;48.888;15.544;2023-11-21T07:19:29;95700.16;;;4.29;75.18
72636;BME280;60679;48.888;15.544;2023-11-21T07:21:55;95706.16;;;4.38;74.83
72636;BME280;60679;48.888;15.544;2023-11-21T07:24:20;95704.13;;;4.46;74.90
72636;BME280;60679;48.888;15.544;2023-11-21T07:26:46;95706.88;;;4.59;74.56
72636;BME280;60679;48.888;15.544;2023-11-21T07:29:13;95701.53;;;4.59;74.43
72636;BME280;60679;48.888;15.544;2023-11-21T07:31:38;95708.50;;;4.60;74.32
72636;BME280;60679;48.888;15.544;2023-11-21T07:34:04;95705.50;;;4.77;74.18
72636;BME280;60679;48.888;15.544;2023-11-21T07:36:29;95707.78;;;4.93;74.09
72636;BME280;60679;48.888;15.544;2023-11-21T07:38:55;95718.31;;;5.14;73.92
72636;BME280;60679;48.888;15.544;2023-11-21T07:41:20;95715.03;;;5.32;73.84
72636;BME280;60679;48.888;15.544;2023-11-21T07:43:46;95710.50;;;5.45;73.67
72636;BME280;60679;48.888;15.544;2023-11-21T07:46:12;95713.19;;;5.52;73.37
72636;BME280;60679;48.888;15.544;2023-11-21T07:48:38;95722.25;;;5.57;73.36
72636;BME280;60679;48.888;15.544;2023-11-21T07:51:04;95709.91;;;5.63;73.46
72636;BME280;60679;48.888;15.544;2023-11-21T07:53:30;95714.00;;;5.65;73.53
72636;BME280;60679;48.888;15.544;2023-11-21T07:56:02;95714.44;;;5.69;73.37
72636;BME280;60679;48.888;15.544;2023-11-21T07:58:27;95720.00;;;5.80;73.26
72636;BME280;60679;48.888;15.544;2023-11-21T08:00:53;95720.59;;;5.96;73.06
72636;BME280;60679;48.888;15.544;2023-11-21T08:03:19;95716.25;;;6.14;73.02
72636;BME280;60679;48.888;15.544;2023-11-21T08:05:44;95714.78;;;6.25;72.69
72636;BME280;60679;48.888;15.544;2023-11-21T08:08:10;95726.75;;;6.29;72.91
72636;BME280;60679;48.888;15.544;2023-11-21T08:10:35;95726.94;;;6.27;72.79
72636;BME280;60679;48.888;15.544;2023-11-21T08:13:02;95719.94;;;6.26;73.06
72636;BME280;60679;48.888;15.544;2023-11-21T08:15:27;95716.81;;;6.29;72.84
72636;BME280;60679;48.888;15.544;2023-11-21T08:17:53;95717.00;;;6.41;72.71
72636;BME280;60679;48.888;15.544;2023-11-21T08:20:19;95729.59;;;6.41;72.71
72636;BME280;60679;48.888;15.544;2023-11-21T08:22:44;95725.44;;;6.51;72.63
72636;BME280;60679;48.888;15.544;2023-11-21T08:25:10;95723.50;;;6.65;72.46
72636;BME280;60679;48.888;15.544;2023-11-21T08:27:36;95732.91;;;6.87;72.24
72636;BME280;60679;48.888;15.544;2023-11-21T08:30:02;95735.72;;;7.05;71.78
72636;BME280;60679;48.888;15.544;2023-11-21T08:32:28;95736.63;;;7.24;71.62
72636;BME280;60679;48.888;15.544;2023-11-21T08:34:55;95742.47;;;7.45;71.39
72636;BME280;60679;48.888;15.544;2023-11-21T08:37:21;95741.69;;;7.70;71.02
72636;BME280;60679;48.888;15.544;2023-11-21T08:39:47;95733.22;;;7.91;70.64
72636;BME280;60679;48.888;15.544;2023-11-21T08:42:13;95738.06;;;8.07;70.36
72636;BME280;60679;48.888;15.544;2023-11-21T08:44:40;95729.84;;;8.20;70.04
72636;BME280;60679;48.888;15.544;2023-11-21T08:47:06;95734.25;;;8.39;69.79
72636;BME280;60679;48.888;15.544;2023-11-21T08:49:31;95726.59;;;8.36;69.85
72636;BME280;60679;48.888;15.544;2023-11-21T08:51:56;95729.16;;;8.31;70.20
72636;BME280;60679;48.888;15.544;2023-11-21T08:54:24;95727.75;;;8.65;69.77
72636;BME280;60679;48.888;15.544;2023-11-21T08:56:51;95721.09;;;8.86;69.61
72636;BME280;60679;48.888;15.544;2023-11-21T08:59:16;95725.69;;;9.26;68.84
72636;BME280;60679;48.888;15.544;2023-11-21T09:01:41;95730.78;;;9.88;68.09
72636;BME280;60679;48.888;15.544;2023-11-21T09:04:07;95726.84;;;10.36;67.45
72636;BME280;60679;48.888;15.544;2023-11-21T09:06:33;95721.91;;;10.45;67.79
72636;BME280;60679;48.888;15.544;2023-11-21T09:08:58;95725.06;;;10.07;68.19
72636;BME280;60679;48.888;15.544;2023-11-21T09:11:24;95727.47;;;9.62;68.48
72636;BME280;60679;48.888;15.544;2023-11-21T09:13:50;95728.75;;;9.30;69.35
72636;BME280;60679;48.888;15.544;2023-11-21T09:16:16;95731.41;;;9.18;69.43
72636;BME280;60679;48.888;15.544;2023-11-21T09:18:41;95725.47;;;8.98;69.92
72636;BME280;60679;48.888;15.544;2023-11-21T09:21:07;95728.47;;;8.90;70.28
72636;BME280;60679;48.888;15.544;2023-11-21T09:23:34;95730.25;;;8.78;70.45
72636;BME280;60679;48.888;15.544;2023-11-21T09:25:59;95733.88;;;8.72;70.61
72636;BME280;60679;48.888;15.544;2023-11-21T09:28:26;95728.94;;;8.69;70.59
72636;BME280;60679;48.888;15.544;2023-11-21T09:30:53;95730.38;;;8.72;70.78
72636;BME280;60679;48.888;15.544;2023-11-21T09:33:18;95735.66;;;8.78;70.68
72636;BME280;60679;48.888;15.544;2023-11-21T09:35:44;95734.75;;;8.84;70.57
72636;BME280;60679;48.888;15.544;2023-11-21T09:38:10;95723.06;;;9.08;70.29
72636;BME280;60679;48.888;15.544;2023-11-21T09:40:36;95726.03;;;9.48;69.53
72636;BME280;60679;48.888;15.544;2023-11-21T09:43:08;95725.16;;;10.01;68.83
72636;BME280;60679;48.888;15.544;2023-11-21T09:45:39;95725.22;;;10.35;68.54
72636;BME280;60679;48.888;15.544;2023-11-21T09:48:05;95713.69;;;10.40;68.68
72636;BME280;60679;48.888;15.544;2023-11-21T09:50:32;95708.88;;;9.96;69.81
72636;BME280;60679;48.888;15.544;2023-11-21T09:53:20;95721.53;;;9.95;69.58
72636;BME280;60679;48.888;15.544;2023-11-21T09:55:48;95718.97;;;10.12;68.86
72636;BME280;60679;48.888;15.544;2023-11-21T09:58:15;95715.00;;;10.14;68.64
72636;BME280;60679;48.888;15.544;2023-11-21T10:00:42;95714.84;;;10.09;69.04
72636;BME280;60679;48.888;15.544;2023-11-21T10:03:08;95711.78;;;10.06;69.40
72636;BME280;60679;48.888;15.544;2023-11-21T10:05:38;95712.72;;;9.88;69.93
72636;BME280;60679;48.888;15.544;2023-11-21T10:08:09;95713.25;;;9.55;70.58
72636;BME280;60679;48.888;15.544;2023-11-21T10:10:43;95712.94;;;9.22;71.08
72636;BME280;60679;48.888;15.544;2023-11-21T10:13:11;95720.63;;;8.89;71.68
72636;BME280;60679;48.888;15.544;2023-11-21T10:15:38;95723.78;;;8.67;71.79
72636;BME280;60679;48.888;15.544;2023-11-21T10:18:04;95715.63;;;8.56;72.10
72636;BME280;60679;48.888;15.544;2023-11-21T10:20:32;95714.44;;;8.52;72.11
72636;BME280;60679;48.888;15.544;2023-11-21T10:22:59;95714.06;;;8.48;72.17
72636;BME280;60679;48.888;15.544;2023-11-21T10:25:26;95723.94;;;8.54;72.44
72636;BME280;60679;48.888;15.544;2023-11-21T10:27:57;95722.81;;;8.62;72.21
72636;BME280;60679;48.888;15.544;2023-11-21T10:30:28;95728.78;;;8.64;72.11
72636;BME280;60679;48.888;15.544;2023-11-21T10:32:59;95719.91;;;8.63;72.05
72636;BME280;60679;48.888;15.544;2023-11-21T10:35:47;95726.72;;;8.66;72.21
72636;BME280;60679;48.888;15.544;2023-11-21T10:38:16;95729.16;;;8.67;71.94
72636;BME280;60679;48.888;15.544;2023-11-21T10:40:42;95728.34;;;8.67;72.08
72636;BME280;60679;48.888;15.544;2023-11-21T10:43:11;95724.00;;;8.66;72.03
72636;BME280;60679;48.888;15.544;2023-11-21T10:45:39;95727.97;;;8.63;72.29
72636;BME280;60679;48.888;15.544;2023-11-21T10:48:06;95735.22;;;8.63;71.89
72636;BME280;60679;48.888;15.544;2023-11-21T10:50:45;95729.72;;;8.58;72.07
72636;BME280;60679;48.888;15.544;2023-11-21T10:53:11;95724.97;;;8.53;72.21
72636;BME280;60679;48.888;15.544;2023-11-21T10:55:38;95724.97;;;8.53;72.08
72636;BME280;60679;48.888;15.544;2023-11-21T10:58:04;95725.94;;;8.59;72.12
72636;BME280;60679;48.888;15.544;2023-11-21T11:00:33;95725.56;;;8.74;71.93
72636;BME280;60679;48.888;15.544;2023-11-21T11:02:59;95723.25;;;8.77;71.75
72636;BME280;60679;48.888;15.544;2023-11-21T11:05:27;95716.22;;;8.76;72.13
72636;BME280;60679;48.888;15.544;2023-11-21T11:08:05;95714.34;;;8.77;71.94
72636;BME280;60679;48.888;15.544;2023-11-21T11:10:31;95715.06;;;8.84;72.06
72636;BME280;60679;48.888;15.544;2023-11-21T11:12:58;95720.91;;;8.99;71.43
72636;BME280;60679;48.888;15.544;2023-11-21T11:15:25;95720.25;;;9.15;71.09
72636;BME280;60679;48.888;15.544;2023-11-21T11:17:51;95716.91;;;9.19;70.71
72636;BME280;60679;48.888;15.544;2023-11-21T11:20:17;95719.66;;;9.31;70.73
72636;BME280;60679;48.888;15.544;2023-11-21T11:25:35;95723.50;;;9.35;70.75
72636;BME280;60679;48.888;15.544;2023-11-21T11:28:15;95713.91;;;9.39;70.80
72636;BME280;60679;48.888;15.544;2023-11-21T11:33:57;95712.28;;;9.38;70.40
72636;BME280;60679;48.888;15.544;2023-11-21T11:37:00;95713.19;;;9.02;71.22
72636;BME280;60679;48.888;15.544;2023-11-21T11:39:35;95707.69;;;8.79;71.75
72636;BME280;60679;48.888;15.544;2023-11-21T11:42:08;95712.41;;;8.65;71.83
72636;BME280;60679;48.888;15.544;2023-11-21T11:44:47;95714.38;;;8.40;72.32
72636;BME280;60679;48.888;15.544;2023-11-21T11:47:24;95708.78;;;8.17;73.05
72636;BME280;60679;48.888;15.544;2023-11-21T11:50:04;95717.59;;;8.06;73.21
72636;BME280;60679;48.888;15.544;2023-11-21T11:52:41;95722.81;;;8.01;73.25
72636;BME280;60679;48.888;15.544;2023-11-21T11:55:15;95723.44;;;7.96;73.32
72636;BME280;60679;48.888;15.544;2023-11-21T11:57:43;95716.94;;;7.86;73.41
72636;BME280;60679;48.888;15.544;2023-11-21T12:00:13;95720.31;;;7.81;73.40
72636;BME280;60679;48.888;15.544;2023-11-21T12:02:44;95716.19;;;7.79;73.41
72636;BME280;60679;48.888;15.544;2023-11-21T12:05:11;95713.44;;;7.85;73.51
72636;BME280;60679;48.888;15.544;2023-11-21T12:08:05;95718.75;;;7.92;73.23
72636;BME280;60679;48.888;15.544;2023-11-21T12:10:33;95717.34;;;8.07;72.95
72636;BME280;60679;48.888;15.544;2023-11-21T12:13:05;95725.25;;;8.27;72.70
72636;BME280;60679;48.888;15.544;2023-11-21T12:15:33;95719.84;;;8.52;72.12
72636;BME280;60679;48.888;15.544;2023-11-21T12:17:58;95713.84;;;8.86;71.47
72636;BME280;60679;48.888;15.544;2023-11-21T12:20:25;95704.78;;;9.40;70.26
72636;BME280;60679;48.888;15.544;2023-11-21T12:22:54;95701.50;;;10.49;68.18
72636;BME280;60679;48.888;15.544;2023-11-21T12:25:25;95706.03;;;11.12;67.24
72636;BME280;60679;48.888;15.544;2023-11-21T12:27:54;95704.19;;;11.00;67.42
72636;BME280;60679;48.888;15.544;2023-11-21T12:30:22;95706.13;;;10.77;68.15
72636;BME280;60679;48.888;15.544;2023-11-21T12:32:52;95706.53;;;10.57;68.47
72636;BME280;60679;48.888;15.544;2023-11-21T12:35:20;95698.06;;;10.65;68.05
72636;BME280;60679;48.888;15.544;2023-11-21T12:37:46;95702.38;;;10.78;67.60
72636;BME280;60679;48.888;15.544;2023-11-21T12:40:13;95697.59;;;11.36;66.77
72636;BME280;60679;48.888;15.544;2023-11-21T12:42:45;95695.16;;;14.65;60.81
72636;BME280;60679;48.888;15.544;2023-11-21T12:47:56;95688.44;;;25.26;46.26
72636;BME280;60679;48.888;15.544;2023-11-21T12:50:26;95678.38;;;26.60;45.17
72636;BME280;60679;48.888;15.544;2023-11-21T12:52:57;95678.50;;;25.43;47.62
72636;BME280;60679;48.888;15.544;2023-11-21T12:55:24;95693.00;;;20.46;55.20
72636;BME280;60679;48.888;15.544;2023-11-21T12:57:51;95684.28;;;23.27;49.22
72636;BME280;60679;48.888;15.544;2023-11-21T13:00:18;95687.09;;;25.79;45.43
72636;BME280;60679;48.888;15.544;2023-11-21T13:02:57;95691.00;;;24.77;47.96
72636;BME280;60679;48.888;15.544;2023-11-21T13:05:34;95692.69;;;24.35;48.38
72636;BME280;60679;48.888;15.544;2023-11-21T13:08:02;95693.00;;;19.71;55.34